Terminal Aerodrome Forecast
Issued by NWS

Home | Current Version | Previous Version | Text Only | Print | Product List | Glossary On
Versions: 1 2 3 4 5 6 7 8 9 10 11 12 13 14 15 16 17 18 19 20 21 22 23 24 25 26 27 28 29 30 31 32 33 34 35
000
FTUS45 KBOU 031739
TAFAPA
TAF
KAPA 031739Z 0318/0418 35010G20KT P6SM SCT060
      TEMPO 0318/0319 BKN060
     FM032000 03012KT P6SM FEW130 SCT220
     FM040100 09008KT P6SM FEW220
     FM040300 15006KT P6SM FEW220
     FM040500 19008KT P6SM SKC=

USA.gov is the U.S. government's official web portal to all federal, state and local government web resources and services.